Time;durP1;ratioP1;P1;durP2;ratioP2;P2;SDS_P1;SDS_P2;PMS_P1;PMS_P2;Temp;Humidity;BMP_temperature;BMP_pressure;BME280_temperature;BME280_humidity;BME280_pressure;Samples;Min_cycle;Max_cycle;Signal;HPM_P1;HPM_P2
2021/10/18 00:01:57;;;;;;;21.07;13.68;;;;;;;-0.13;93.54;93574.41;1837230;77;20986;-86
2021/10/18 00:04:23;;;;;;;26.45;17.42;;;;;;;-0.12;93.22;93571.95;1851896;77;21543;-87
2021/10/18 00:06:49;;;;;;;26.00;15.75;;;;;;;-0.13;93.09;93578.97;1854080;77;20967;-85
2021/10/18 00:09:16;;;;;;;17.17;9.68;;;;;;;-0.13;93.27;93574.41;1848629;77;21104;-86
2021/10/18 00:11:44;;;;;;;14.98;10.40;;;;;;;-0.14;93.34;93573.41;1848199;77;20998;-85
2021/10/18 00:14:10;;;;;;;11.80;7.78;;;;;;;-0.15;93.29;93573.96;1840065;77;21538;-85
2021/10/18 00:16:38;;;;;;;13.93;9.10;;;;;;;-0.19;93.32;93569.56;1837873;77;21042;-85
2021/10/18 00:19:06;;;;;;;17.60;12.03;;;;;;;-0.25;93.56;93579.11;1826874;77;21625;-86
2021/10/18 00:21:33;;;;;;;17.17;11.80;;;;;;;-0.31;93.41;93574.27;1817367;77;20946;-85
2021/10/18 00:23:59;;;;;;;19.55;12.70;;;;;;;-0.37;93.37;93570.23;1828222;77;21076;-86
2021/10/18 00:26:26;;;;;;;20.05;12.07;;;;;;;-0.43;93.46;93570.95;1835491;77;21041;-86
2021/10/18 00:28:54;;;;;;;18.57;11.25;;;;;;;-0.47;93.37;93573.26;1827754;77;21029;-85
2021/10/18 00:31:20;;;;;;;19.42;12.20;;;;;;;-0.53;93.26;93574.78;1821872;77;21081;-86
2021/10/18 00:33:49;;;;;;;19.65;12.60;;;;;;;-0.59;93.01;93566.70;1824136;77;21034;-85
2021/10/18 00:36:16;;;;;;;19.20;12.80;;;;;;;-0.64;93.17;93562.89;1817367;77;21091;-85
2021/10/18 00:38:42;;;;;;;18.00;10.53;;;;;;;-0.68;93.32;93566.50;1799110;78;21041;-85
2021/10/18 00:41:12;;;;;;;15.70;10.53;;;;;;;-0.71;93.27;93565.27;1800693;78;21065;-86
2021/10/18 00:43:43;;;;;;;12.98;8.93;;;;;;;-0.75;93.16;93567.02;1771871;78;21604;-85
2021/10/18 00:46:07;;;;;;;16.55;10.82;;;;;;;-0.82;93.29;93565.39;1805131;78;20974;-85
2021/10/18 00:48:34;;;;;;;18.20;10.60;;;;;;;-0.84;93.69;93565.70;1805498;78;21762;-85
2021/10/18 00:51:00;;;;;;;17.37;11.30;;;;;;;-0.81;93.80;93569.63;1823472;77;21093;-85
2021/10/18 00:53:26;;;;;;;18.80;10.93;;;;;;;-0.83;93.74;93567.81;1791564;77;20942;-85
2021/10/18 00:55:54;;;;;;;22.90;11.65;;;;;;;-0.85;93.63;93561.47;1812633;77;21081;-86
2021/10/18 00:58:22;;;;;;;18.70;11.38;;;;;;;-0.87;93.37;93563.66;1805791;77;21512;-85
2021/10/18 01:00:49;;;;;;;20.40;12.30;;;;;;;-0.88;93.45;93558.09;1782098;79;21099;-85
2021/10/18 01:03:16;;;;;;;16.87;10.50;;;;;;;-0.89;93.70;93562.44;1827896;78;21493;-86
2021/10/18 01:05:43;;;;;;;16.52;9.90;;;;;;;-0.86;93.67;93567.14;1808206;77;20951;-85
2021/10/18 01:08:14;;;;;;;11.63;7.08;;;;;;;-0.84;93.53;93571.03;1825141;77;20994;-85
2021/10/18 01:10:40;;;;;;;11.73;7.67;;;;;;;-0.84;93.26;93574.27;1833803;77;21053;-84
2021/10/18 01:13:09;;;;;;;10.48;7.70;;;;;;;-0.93;93.33;93582.30;1811972;78;21139;-85
2021/10/18 01:15:36;;;;;;;13.22;7.70;;;;;;;-0.96;93.72;93582.94;1817127;77;21066;-85
2021/10/18 01:18:03;;;;;;;11.08;7.30;;;;;;;-0.96;93.73;93584.27;1852852;77;21500;-84
2021/10/18 01:20:36;;;;;;;19.90;11.48;;;;;;;-0.99;93.83;93587.02;1828768;77;21457;-84
2021/10/18 01:23:03;;;;;;;16.42;10.18;;;;;;;-0.97;93.85;93590.72;1809949;79;20992;-86
2021/10/18 01:25:30;;;;;;;19.67;11.88;;;;;;;-0.95;93.86;93595.17;1828798;77;21481;-84
2021/10/18 01:27:57;;;;;;;18.10;11.57;;;;;;;-0.95;93.75;93593.06;1779875;77;21612;-84
2021/10/18 01:30:24;;;;;;;17.35;10.65;;;;;;;-0.93;93.70;93591.66;1847535;77;21547;-85
2021/10/18 01:32:51;;;;;;;18.12;10.95;;;;;;;-0.89;93.48;93599.81;1788723;78;21481;-84
2021/10/18 01:35:18;;;;;;;12.50;7.50;;;;;;;-0.90;93.28;93593.69;1781567;79;21018;-84
2021/10/18 01:37:44;;;;;;;15.50;10.00;;;;;;;-0.92;93.34;93595.88;1761678;80;21146;-84
2021/10/18 01:40:14;;;;;;;13.95;9.10;;;;;;;-0.90;93.15;93591.02;1744841;81;21820;-85
2021/10/18 01:42:41;;;;;;;10.58;6.40;;;;;;;-0.89;92.94;93591.80;1762524;80;21431;-85
2021/10/18 01:45:09;;;;;;;10.60;6.80;;;;;;;-0.94;92.35;93596.77;1732689;81;21078;-85
2021/10/18 01:47:36;;;;;;;9.50;6.05;;;;;;;-1.01;91.87;93591.13;1761218;79;20997;-84
2021/10/18 01:50:08;;;;;;;9.33;6.60;;;;;;;-1.11;91.65;93590.12;1791360;78;21126;-85
2021/10/18 01:52:36;;;;;;;10.25;6.22;;;;;;;-1.26;91.77;93592.18;1814591;78;21065;-84
2021/10/18 01:55:05;;;;;;;7.42;5.05;;;;;;;-1.32;92.24;93587.31;1797094;79;21042;-84
2021/10/18 01:57:32;;;;;;;7.35;5.17;;;;;;;-1.35;92.26;93591.97;1843023;77;21398;-84
2021/10/18 01:59:59;;;;;;;6.28;4.75;;;;;;;-1.43;92.41;93586.85;1838745;77;21030;-83
2021/10/18 02:02:28;;;;;;;5.03;4.37;;;;;;;-1.49;92.70;93590.25;1818789;76;21097;-84
2021/10/18 02:04:56;;;;;;;5.97;4.37;;;;;;;-1.52;93.26;93594.09;1814031;77;20974;-84
2021/10/18 02:07:22;;;;;;;5.45;4.33;;;;;;;-1.47;93.54;93597.39;1841602;77;21770;-84
2021/10/18 02:09:50;;;;;;;7.30;5.33;;;;;;;-1.49;93.52;93597.47;1762402;81;21042;-84
2021/10/18 02:12:21;;;;;;;7.93;5.63;;;;;;;-1.47;93.67;93586.73;1860505;75;21061;-85
2021/10/18 02:14:49;;;;;;;8.30;5.63;;;;;;;-1.43;93.29;93584.73;1846151;76;21648;-84
2021/10/18 02:17:16;;;;;;;5.22;4.37;;;;;;;-1.38;93.17;93585.93;1824565;77;21019;-85
2021/10/18 02:19:43;;;;;;;6.12;4.70;;;;;;;-1.41;92.79;93583.33;1796966;77;21081;-86
2021/10/18 02:22:11;;;;;;;7.10;4.62;;;;;;;-1.49;92.83;93580.13;1781629;80;21097;-85
2021/10/18 02:24:38;;;;;;;7.87;5.05;;;;;;;-1.48;93.11;93589.69;1840591;77;21493;-84
2021/10/18 02:27:04;;;;;;;10.70;5.37;;;;;;;-1.44;93.08;93591.19;1798703;79;21739;-85
2021/10/18 02:29:32;;;;;;;21.25;13.13;;;;;;;-1.44;92.78;93591.19;1776484;79;20959;-84
2021/10/18 02:31:59;;;;;;;21.07;12.43;;;;;;;-1.45;93.09;93582.95;1797979;77;21014;-84
2021/10/18 02:34:25;;;;;;;22.93;13.43;;;;;;;-1.43;93.28;93586.08;1849591;76;20940;-84
2021/10/18 02:36:52;;;;;;;29.23;15.08;;;;;;;-1.44;93.22;93583.96;1817055;78;21078;-83
2021/10/18 02:39:18;;;;;;;24.60;14.07;;;;;;;-1.42;93.42;93593.78;1810125;78;21069;-84
2021/10/18 02:41:45;;;;;;;23.42;13.78;;;;;;;-1.39;93.38;93588.34;1815286;78;21062;-84
2021/10/18 02:44:11;;;;;;;20.48;14.00;;;;;;;-1.36;93.55;93586.38;1815703;78;21021;-84
2021/10/18 02:46:38;;;;;;;22.73;13.22;;;;;;;-1.32;93.59;93582.77;1814849;77;21078;-84
2021/10/18 02:49:04;;;;;;;19.30;11.33;;;;;;;-1.27;93.40;93579.17;1792293;79;20994;-84
2021/10/18 02:51:31;;;;;;;13.73;9.10;;;;;;;-1.23;93.28;93576.88;1779563;79;21084;-84
2021/10/18 02:53:57;;;;;;;12.03;7.90;;;;;;;-1.24;92.85;93577.20;1751096;80;21583;-84
2021/10/18 02:56:24;;;;;;;17.52;11.25;;;;;;;-1.31;92.86;93579.56;1748954;81;21011;-82
2021/10/18 02:58:50;;;;;;;13.93;8.98;;;;;;;-1.33;93.03;93575.87;1715888;82;21437;-84
2021/10/18 03:01:18;;;;;;;17.52;9.33;;;;;;;-1.31;93.14;93580.91;1791266;79;21018;-84
2021/10/18 03:03:45;;;;;;;16.73;11.53;;;;;;;-1.28;93.21;93583.72;1781064;77;21103;-84
2021/10/18 03:06:11;;;;;;;14.78;10.63;;;;;;;-1.27;93.37;93578.61;1741164;81;21066;-84
2021/10/18 03:08:38;;;;;;;15.58;9.90;;;;;;;-1.22;93.25;93585.11;1714642;80;21126;-84
2021/10/18 03:11:04;;;;;;;15.80;10.60;;;;;;;-1.20;93.22;93580.80;1744859;78;21011;-84
2021/10/18 03:13:30;;;;;;;15.48;9.60;;;;;;;-1.20;93.14;93579.47;1807859;78;21048;-84
2021/10/18 03:15:57;;;;;;;14.68;10.10;;;;;;;-1.18;93.18;93577.25;1830692;78;21092;-83
2021/10/18 03:18:24;;;;;;;17.70;10.63;;;;;;;-1.18;93.01;93579.14;1807262;78;21007;-84
2021/10/18 03:20:51;;;;;;;12.35;8.05;;;;;;;-1.17;93.25;93572.70;1796562;77;21128;-84
2021/10/18 03:23:18;;;;;;;11.40;8.40;;;;;;;-1.13;93.07;93574.44;1792735;78;21022;-85
2021/10/18 03:25:44;;;;;;;15.65;9.48;;;;;;;-1.09;92.87;93571.89;1829777;78;21066;-84
2021/10/18 03:28:11;;;;;;;15.15;9.63;;;;;;;-1.08;92.92;93566.25;1801301;79;21121;-84
2021/10/18 03:30:37;;;;;;;14.65;8.18;;;;;;;-1.06;92.92;93565.36;1790818;78;21602;-84
2021/10/18 03:33:04;;;;;;;12.98;8.28;;;;;;;-1.05;92.93;93572.84;1829707;77;20985;-84
2021/10/18 03:35:31;;;;;;;11.73;7.70;;;;;;;-1.05;92.85;93576.30;1838067;76;20995;-84
2021/10/18 03:37:57;;;;;;;11.18;6.87;;;;;;;-1.04;92.92;93573.07;1808564;77;21249;-84
2021/10/18 03:40:25;;;;;;;11.35;6.40;;;;;;;-1.03;92.96;93576.75;1774556;80;21136;-84
2021/10/18 03:42:51;;;;;;;7.80;5.78;;;;;;;-1.01;92.41;93577.78;1763550;80;21466;-84
2021/10/18 03:45:18;;;;;;;8.50;6.00;;;;;;;-1.03;92.36;93575.41;1809870;77;21038;-84
2021/10/18 03:47:45;;;;;;;9.10;5.13;;;;;;;-1.04;92.03;93580.52;1795459;77;20963;-84
2021/10/18 03:50:12;;;;;;;8.48;5.28;;;;;;;-1.04;92.11;93583.75;1766477;80;21150;-84
2021/10/18 03:52:39;;;;;;;9.63;5.87;;;;;;;-1.07;91.84;93586.49;1766403;77;21774;-84
2021/10/18 03:55:06;;;;;;;7.08;5.17;;;;;;;-1.09;92.11;93584.70;1835276;77;20998;-83
2021/10/18 03:57:32;;;;;;;9.03;5.80;;;;;;;-1.09;92.20;93579.89;1858086;77;21040;-84
2021/10/18 03:59:58;;;;;;;14.45;8.05;;;;;;;-1.11;92.45;93580.22;1807541;77;21034;-83
2021/10/18 04:02:25;;;;;;;9.83;7.28;;;;;;;-1.17;92.93;93578.03;1754939;79;21055;-83
2021/10/18 04:04:54;;;;;;;11.40;6.87;;;;;;;-1.23;93.72;93572.09;1770824;78;22884;-84
2021/10/18 04:07:20;;;;;;;13.98;7.50;;;;;;;-1.26;94.30;93570.84;1824397;78;21454;-84
2021/10/18 04:09:47;;;;;;;11.30;6.83;;;;;;;-1.25;94.53;93571.06;1750330;79;21034;-84
2021/10/18 04:12:14;;;;;;;12.05;6.80;;;;;;;-1.20;94.75;93571.47;1761305;80;21033;-84
2021/10/18 04:14:40;;;;;;;11.35;6.65;;;;;;;-1.17;94.78;93580.70;1790373;77;20991;-84
2021/10/18 04:17:07;;;;;;;11.55;7.33;;;;;;;-1.15;94.47;93577.95;1848182;76;21965;-85
2021/10/18 04:19:35;;;;;;;15.68;8.78;;;;;;;-1.12;94.52;93580.55;1856269;77;21026;-84
2021/10/18 04:22:01;;;;;;;13.70;8.45;;;;;;;-1.09;94.66;93576.70;1781406;78;21622;-84
2021/10/18 04:24:28;;;;;;;15.58;9.45;;;;;;;-1.04;94.80;93583.75;1840252;75;21033;-83
2021/10/18 04:26:54;;;;;;;13.98;8.60;;;;;;;-1.04;94.66;93579.19;1870144;75;21037;-84
2021/10/18 04:29:21;;;;;;;16.23;9.53;;;;;;;-1.03;94.68;93579.41;1830843;76;21091;-84
2021/10/18 04:31:47;;;;;;;20.10;10.38;;;;;;;-1.00;94.63;93585.45;1768813;80;21063;-84
2021/10/18 04:34:13;;;;;;;22.05;12.35;;;;;;;-0.96;94.71;93584.83;1795405;78;21524;-84
2021/10/18 04:36:40;;;;;;;22.95;12.20;;;;;;;-0.96;94.51;93584.27;1825581;77;21034;-84
2021/10/18 04:39:07;;;;;;;20.45;12.35;;;;;;;-0.95;94.33;93590.39;1834321;76;21085;-84
2021/10/18 04:41:33;;;;;;;15.75;9.70;;;;;;;-0.97;94.19;93592.05;1831707;77;21547;-84
2021/10/18 04:44:01;;;;;;;16.27;9.65;;;;;;;-0.98;94.23;93591.80;1832668;77;21021;-85
2021/10/18 04:46:29;;;;;;;20.52;10.78;;;;;;;-0.97;94.32;93601.40;1826529;77;22034;-85
2021/10/18 04:48:56;;;;;;;19.12;12.23;;;;;;;-0.95;94.47;93599.73;1849381;77;21030;-85
2021/10/18 04:51:26;;;;;;;20.82;11.57;;;;;;;-0.93;94.75;93596.98;1839427;75;21028;-86
2021/10/18 04:53:52;;;;;;;18.98;12.05;;;;;;;-0.87;94.74;93601.03;1831111;77;21613;-85
2021/10/18 04:56:34;;;;;;;17.48;11.00;;;;;;;-0.86;94.28;93606.63;1788933;79;21186;-85
2021/10/18 04:59:03;;;;;;;18.32;9.85;;;;;;;-0.88;93.36;93603.48;1817432;78;20997;-85
2021/10/18 05:01:29;;;;;;;17.82;8.78;;;;;;;-0.96;93.34;93606.97;1777796;79;21086;-85
2021/10/18 05:03:55;;;;;;;17.15;10.58;;;;;;;-0.96;93.36;93611.52;1750121;80;21104;-84
2021/10/18 05:06:22;;;;;;;17.70;9.73;;;;;;;-0.99;93.32;93621.72;1753285;78;21774;-85
2021/10/18 05:08:50;;;;;;;19.23;10.48;;;;;;;-0.99;93.43;93625.72;1764061;80;21033;-84
2021/10/18 05:11:17;;;;;;;14.80;9.25;;;;;;;-1.00;93.69;93635.39;1776473;78;21053;-85
2021/10/18 05:13:43;;;;;;;18.12;10.45;;;;;;;-0.97;94.02;93636.10;1786072;78;21069;-85
2021/10/18 05:16:11;;;;;;;17.52;10.78;;;;;;;-0.94;93.97;93628.80;1828238;77;21497;-85
2021/10/18 05:18:40;;;;;;;15.95;8.55;;;;;;;-0.91;94.10;93634.03;1846331;77;21581;-85
2021/10/18 05:21:06;;;;;;;12.63;7.30;;;;;;;-0.93;93.84;93631.70;1851373;76;21021;-86
2021/10/18 05:23:33;;;;;;;12.73;7.70;;;;;;;-0.94;94.05;93632.80;1833380;77;21229;-85
2021/10/18 05:26:01;;;;;;;12.28;8.00;;;;;;;-0.91;94.19;93632.14;1845177;77;21103;-86
2021/10/18 05:28:27;;;;;;;11.83;6.42;;;;;;;-0.89;94.24;93639.30;1753735;77;21089;-85
2021/10/18 05:30:54;;;;;;;9.60;6.08;;;;;;;-0.80;94.63;93644.61;1759085;79;21128;-86
2021/10/18 05:33:20;;;;;;;7.87;5.78;;;;;;;-0.70;94.49;93652.29;1784525;77;21018;-85
2021/10/18 05:35:47;;;;;;;8.90;5.95;;;;;;;-0.68;94.51;93654.63;1820529;76;21021;-86
2021/10/18 05:38:20;;;;;;;9.45;6.05;;;;;;;-0.59;95.05;93657.52;1856493;76;21037;-86
2021/10/18 05:40:48;;;;;;;7.10;5.12;;;;;;;-0.30;96.49;93664.01;1745046;80;21062;-86
2021/10/18 05:43:14;;;;;;;8.15;5.08;;;;;;;0.00;95.31;93659.50;1784508;79;21058;-85
2021/10/18 05:45:42;;;;;;;6.17;4.28;;;;;;;0.20;95.32;93668.67;1745926;80;21551;-84
2021/10/18 05:48:10;;;;;;;7.25;5.58;;;;;;;0.51;95.56;93670.20;1735098;80;21587;-85
2021/10/18 05:50:40;;;;;;;9.03;5.67;;;;;;;0.94;95.76;93672.53;1773953;77;21129;-87
2021/10/18 05:53:07;;;;;;;8.50;6.22;;;;;;;1.41;94.22;93668.26;1792877;78;21058;-87
2021/10/18 05:55:40;;;;;;;9.25;7.53;;;;;;;1.73;92.10;93676.58;1775457;79;21160;-83
2021/10/18 05:58:29;;;;;;;11.70;7.62;;;;;;;1.87;90.42;93671.12;1749179;79;21774;-85
2021/10/18 06:00:54;;;;;;;11.65;8.63;;;;;;;1.92;89.02;93676.86;1738264;78;21057;-84
2021/10/18 06:03:20;;;;;;;9.58;7.45;;;;;;;1.91;87.62;93675.27;1798279;78;21026;-85
2021/10/18 06:05:56;;;;;;;9.18;6.75;;;;;;;1.81;86.91;93671.70;1803322;77;21347;-86
2021/10/18 06:08:23;;;;;;;6.83;5.33;;;;;;;1.65;87.04;93675.56;1815764;77;21124;-85
2021/10/18 06:10:49;;;;;;;7.00;5.05;;;;;;;1.55;87.40;93673.33;1795105;79;21127;-86
2021/10/18 06:13:18;;;;;;;9.88;6.87;;;;;;;1.50;87.71;93676.98;1817064;75;21065;-89
2021/10/18 06:15:55;;;;;;;10.55;8.08;;;;;;;1.47;88.07;93679.01;1819129;76;21066;-87
2021/10/18 06:18:20;;;;;;;10.35;7.65;;;;;;;1.46;88.25;93676.86;1834562;75;21062;-87
2021/10/18 06:20:53;;;;;;;15.32;11.00;;;;;;;1.52;88.90;93679.34;1822004;77;21627;-87
2021/10/18 06:23:20;;;;;;;12.28;9.03;;;;;;;1.56;89.14;93683.70;1817587;77;21023;-84
2021/10/18 06:25:47;;;;;;;12.03;8.55;;;;;;;1.59;89.28;93683.05;1832704;77;21120;-87
2021/10/18 06:28:14;;;;;;;8.65;5.95;;;;;;;1.66;89.57;93686.53;1827237;77;21265;-86
2021/10/18 06:30:43;;;;;;;13.98;5.15;;;;;;;1.77;89.89;93688.20;1755660;80;21618;-87
2021/10/18 06:33:09;;;;;;;6.67;5.50;;;;;;;1.85;89.92;93690.81;1800246;79;21832;-86
2021/10/18 06:35:37;;;;;;;9.18;6.92;;;;;;;1.90;89.81;93693.83;1799651;78;21013;-85
2021/10/18 06:38:15;;;;;;;11.95;7.70;;;;;;;1.94;89.62;93698.19;1808996;78;21090;-85
2021/10/18 06:40:42;;;;;;;9.00;7.35;;;;;;;2.01;89.53;93692.84;1802829;78;21065;-84
2021/10/18 06:43:08;;;;;;;12.33;8.65;;;;;;;2.05;89.41;93697.75;1808340;76;21033;-85
2021/10/18 06:45:36;;;;;;;13.35;8.25;;;;;;;2.05;89.17;93700.44;1794180;78;21092;-84
2021/10/18 06:48:03;;;;;;;11.57;8.98;;;;;;;2.00;89.10;93693.39;1804094;78;21061;-85
2021/10/18 06:50:32;;;;;;;11.05;7.78;;;;;;;2.00;89.22;93697.98;1792602;78;21032;-86
2021/10/18 06:52:59;;;;;;;10.82;7.47;;;;;;;2.00;89.53;93698.77;1825171;77;21049;-85
2021/10/18 06:55:27;;;;;;;11.68;7.65;;;;;;;2.00;89.56;93701.45;1797279;78;21121;-84
2021/10/18 06:57:56;;;;;;;11.28;8.23;;;;;;;1.99;89.49;93700.42;1730738;80;21107;-84
2021/10/18 07:00:22;;;;;;;10.63;6.97;;;;;;;1.92;89.00;93700.99;1735774;80;21121;-84
2021/10/18 07:02:50;;;;;;;13.10;8.18;;;;;;;1.82;89.24;93701.41;1751770;79;21122;-86
2021/10/18 07:05:18;;;;;;;13.32;8.35;;;;;;;1.78;89.79;93697.84;1784258;79;21694;-85
2021/10/18 07:07:44;;;;;;;14.18;9.45;;;;;;;1.79;90.31;93698.05;1754455;79;21760;-85
2021/10/18 07:10:11;;;;;;;10.98;7.33;;;;;;;1.79;90.63;93701.52;1778982;79;21046;-85
2021/10/18 07:12:37;;;;;;;11.78;8.18;;;;;;;1.80;90.70;93700.39;1787412;77;21097;-85
2021/10/18 07:15:04;;;;;;;12.95;8.43;;;;;;;1.85;91.34;93696.73;1776595;78;21533;-84
2021/10/18 07:17:31;;;;;;;14.28;8.93;;;;;;;1.92;91.67;93703.11;1820835;75;21092;-86
2021/10/18 07:19:58;;;;;;;13.40;7.83;;;;;;;2.02;92.09;93701.09;1783766;75;21053;-85
2021/10/18 07:22:29;;;;;;;13.53;7.83;;;;;;;2.08;92.29;93701.89;1817316;76;21632;-85
2021/10/18 07:24:58;;;;;;;14.10;8.95;;;;;;;2.14;92.41;93701.91;1822142;76;21045;-86
2021/10/18 07:27:25;;;;;;;11.12;8.63;;;;;;;2.22;92.47;93692.72;1809612;76;21576;-85
2021/10/18 07:29:52;;;;;;;10.95;6.90;;;;;;;2.31;92.30;93700.89;1734888;81;21071;-86
2021/10/18 07:32:18;;;;;;;12.35;7.95;;;;;;;2.41;92.82;93703.70;1736804;82;21023;-85
2021/10/18 07:34:45;;;;;;;12.03;8.10;;;;;;;2.50;92.84;93708.94;1740108;81;21496;-85
2021/10/18 07:37:12;;;;;;;10.13;6.55;;;;;;;2.56;92.47;93711.06;1758589;80;21628;-84
2021/10/18 07:39:39;;;;;;;11.00;7.87;;;;;;;2.66;92.15;93705.78;1793000;77;21029;-84
2021/10/18 07:42:07;;;;;;;16.70;9.05;;;;;;;2.73;91.95;93707.34;1834572;77;21762;-84
2021/10/18 07:44:33;;;;;;;13.95;10.05;;;;;;;2.81;91.84;93708.33;1829352;77;21105;-85
2021/10/18 07:47:02;;;;;;;18.65;11.53;;;;;;;2.83;90.88;93702.86;1795607;77;21104;-85
2021/10/18 07:49:34;;;;;;;20.77;12.03;;;;;;;2.85;90.74;93707.88;1790741;78;21080;-85
2021/10/18 07:51:58;;;;;;;20.55;14.38;;;;;;;2.89;90.91;93712.79;1792242;78;21798;-86
2021/10/18 07:54:27;;;;;;;17.82;12.55;;;;;;;2.95;90.90;93714.70;1843445;76;21524;-85
2021/10/18 07:56:53;;;;;;;17.75;11.03;;;;;;;2.99;90.67;93715.02;1779740;79;21116;-85
2021/10/18 07:59:20;;;;;;;18.00;12.35;;;;;;;3.03;90.21;93714.55;1779971;79;21409;-85
2021/10/18 08:01:47;;;;;;;18.07;11.20;;;;;;;3.08;90.14;93720.24;1770142;78;21010;-85
2021/10/18 08:04:13;;;;;;;14.87;10.20;;;;;;;3.11;89.79;93712.28;1769684;79;21079;-85
2021/10/18 08:06:39;;;;;;;17.27;10.15;;;;;;;3.14;89.35;93718.89;1780675;78;20979;-86
2021/10/18 08:09:08;;;;;;;14.28;9.80;;;;;;;3.16;89.02;93721.47;1820671;77;21077;-86
2021/10/18 08:11:34;;;;;;;16.67;10.60;;;;;;;3.21;89.08;93712.95;1825639;76;21773;-85
2021/10/18 08:14:01;;;;;;;16.48;11.70;;;;;;;3.26;88.87;93709.44;1809305;77;21026;-85
2021/10/18 08:16:29;;;;;;;19.20;12.28;;;;;;;3.32;88.81;93712.13;1837730;75;21017;-85
2021/10/18 08:18:55;;;;;;;18.23;11.88;;;;;;;3.38;88.60;93709.39;1815066;77;21001;-85
2021/10/18 08:21:22;;;;;;;20.23;12.00;;;;;;;3.44;88.41;93718.00;1757256;78;21054;-85
2021/10/18 08:23:50;;;;;;;20.75;11.95;;;;;;;3.50;88.48;93713.95;1826696;76;21683;-86
2021/10/18 08:26:16;;;;;;;18.67;12.37;;;;;;;3.58;88.76;93710.90;1794963;77;21064;-86
2021/10/18 08:28:43;;;;;;;20.27;11.35;;;;;;;3.67;88.40;93698.06;1770140;80;20999;-85
2021/10/18 08:31:09;;;;;;;16.30;11.45;;;;;;;3.76;88.40;93696.55;1766314;77;21045;-86
2021/10/18 08:33:36;;;;;;;15.43;10.58;;;;;;;3.87;88.42;93698.42;1802858;77;21679;-86
2021/10/18 08:36:05;;;;;;;16.57;10.38;;;;;;;4.02;88.81;93704.14;1774194;79;21122;-84
2021/10/18 08:38:47;;;;;;;16.27;10.32;;;;;;;4.17;87.90;93701.23;1774485;78;21102;-85
2021/10/18 08:41:26;;;;;;;15.18;10.20;;;;;;;4.28;87.54;93700.36;1795990;79;21812;-86
2021/10/18 08:46:34;;;;;;;15.80;10.32;;;;;;;4.49;85.43;93699.32;1804435;78;21572;-85
2021/10/18 08:49:00;;;;;;;18.23;11.15;;;;;;;4.55;85.11;93700.05;1807336;78;21417;-86
2021/10/18 08:51:27;;;;;;;14.73;10.32;;;;;;;4.65;84.79;93701.98;1825178;77;21041;-87
2021/10/18 08:53:54;;;;;;;16.62;11.22;;;;;;;4.73;84.51;93696.40;1807335;77;21012;-87
2021/10/18 08:56:23;;;;;;;17.87;11.05;;;;;;;4.80;83.99;93698.48;1736350;79;21062;-85
2021/10/18 08:58:49;;;;;;;16.80;10.60;;;;;;;4.88;84.14;93693.45;1744140;79;21607;-86
2021/10/18 09:01:18;;;;;;;15.75;10.35;;;;;;;4.98;83.86;93701.56;1768716;78;21135;-85
2021/10/18 09:03:44;;;;;;;13.38;9.15;;;;;;;5.08;83.29;93691.59;1786855;78;21642;-85
2021/10/18 09:06:21;;;;;;;12.25;8.90;;;;;;;5.19;83.03;93682.34;1771033;79;21597;-86
2021/10/18 09:08:51;;;;;;;13.93;9.48;;;;;;;5.30;82.08;93684.69;1778167;79;21067;-85
2021/10/18 09:11:22;;;;;;;14.85;10.03;;;;;;;5.42;81.61;93677.05;1795127;78;21073;-85
2021/10/18 09:13:57;;;;;;;14.40;9.90;;;;;;;5.52;80.47;93682.63;1783902;78;21926;-85
2021/10/18 09:16:29;;;;;;;13.48;9.25;;;;;;;5.62;79.25;93678.58;1759668;80;21149;-87
2021/10/18 09:19:10;;;;;;;12.28;8.15;;;;;;;5.72;78.74;93683.41;1739839;81;21100;-86
2021/10/18 09:21:50;;;;;;;14.33;9.55;;;;;;;5.83;78.62;93683.61;1753419;80;21604;-86
2021/10/18 09:24:36;;;;;;;13.30;9.43;;;;;;;5.95;77.89;93689.44;1737916;80;21046;-88
2021/10/18 09:27:01;;;;;;;15.38;9.23;;;;;;;6.05;77.90;93686.12;1793935;78;21822;-86
2021/10/18 09:29:49;;;;;;;9.55;7.45;;;;;;;6.15;76.42;93675.30;1786327;79;21575;-87
2021/10/18 09:32:20;;;;;;;10.48;7.47;;;;;;;6.24;76.44;93673.93;1749765;79;21641;-88
2021/10/18 09:34:47;;;;;;;12.18;7.62;;;;;;;6.36;75.13;93668.10;1740349;79;21073;-87
2021/10/18 09:37:15;;;;;;;10.68;7.62;;;;;;;6.48;73.50;93664.66;1779108;78;21074;-84
2021/10/18 09:39:47;;;;;;;11.03;7.45;;;;;;;6.63;73.20;93663.52;1720551;81;21121;-87
2021/10/18 09:42:19;;;;;;;11.97;6.40;;;;;;;6.80;72.91;93662.41;1785125;79;21014;-84
2021/10/18 09:45:14;;;;;;;10.70;6.95;;;;;;;7.05;71.97;93660.05;1777952;79;21521;-84
2021/10/18 09:47:54;;;;;;;10.25;6.55;;;;;;;7.24;69.37;93660.48;1782371;78;21047;-87
2021/10/18 10:52:52;;;;;;;8.97;5.47;;;;;;;8.13;61.01;93623.33;1758154;79;21157;-86
2021/10/18 10:55:31;;;;;;;6.25;5.50;;;;;;;8.15;60.78;93620.43;1815865;77;21564;-87
2021/10/18 10:58:00;;;;;;;7.15;5.45;;;;;;;8.17;61.19;93620.84;1772423;79;21072;-86
2021/10/18 11:00:40;;;;;;;9.33;6.15;;;;;;;8.19;59.59;93617.75;1746742;80;21145;-85
2021/10/18 11:03:30;;;;;;;10.30;5.75;;;;;;;8.17;58.72;93614.08;1779394;78;21380;-86
2021/10/18 11:06:12;;;;;;;7.10;5.83;;;;;;;8.17;59.30;93611.95;1757176;78;21734;-87
2021/10/18 11:08:46;;;;;;;9.05;5.90;;;;;;;8.19;60.49;93606.34;1801338;77;21062;-86
2021/10/18 11:11:22;;;;;;;7.45;5.85;;;;;;;8.23;60.13;93610.42;1787616;78;21081;-87
2021/10/18 11:13:57;;;;;;;10.30;6.05;;;;;;;8.24;59.54;93610.07;1783436;77;21077;-87
2021/10/18 11:16:31;;;;;;;7.78;5.78;;;;;;;8.26;60.06;93603.69;1804865;77;21580;-85
2021/10/18 11:19:00;;;;;;;8.05;6.20;;;;;;;8.28;60.31;93604.10;1730282;81;21094;-86
2021/10/18 11:21:29;;;;;;;10.55;5.78;;;;;;;8.30;61.27;93609.71;1744848;80;21667;-87
2021/10/18 11:24:12;;;;;;;9.08;6.22;;;;;;;8.33;60.45;93608.97;1783257;79;21616;-84
2021/10/18 11:26:39;;;;;;;7.28;5.55;;;;;;;8.32;59.64;93606.06;1814481;75;21751;-85
2021/10/18 11:29:08;;;;;;;9.93;5.78;;;;;;;8.31;60.14;93605.27;1844298;75;21559;-84
2021/10/18 11:31:41;;;;;;;7.85;6.25;;;;;;;8.32;60.58;93604.13;1838271;76;21200;-85
2021/10/18 11:36:46;;;;;;;12.10;5.62;;;;;;;8.35;60.60;93603.38;1798457;77;21135;-85
2021/10/18 11:39:18;;;;;;;7.30;5.42;;;;;;;8.35;60.62;93599.32;1819115;77;21057;-86
2021/10/18 11:42:04;;;;;;;9.05;5.80;;;;;;;8.35;60.29;93599.88;1785162;77;21923;-86
2021/10/18 11:44:47;;;;;;;9.13;6.20;;;;;;;8.31;59.10;93595.78;1792037;77;21077;-86
2021/10/18 11:47:32;;;;;;;9.33;6.20;;;;;;;8.27;59.70;93605.27;1824817;77;21034;-84
2021/10/18 11:50:18;;;;;;;8.48;5.80;;;;;;;8.24;59.82;93600.59;1816028;77;21029;-87
2021/10/18 11:52:56;;;;;;;7.50;6.22;;;;;;;8.21;60.31;93593.20;1781374;79;21197;-85
2021/10/18 11:55:31;;;;;;;9.25;6.33;;;;;;;8.20;60.26;93594.95;1780526;79;21787;-85
2021/10/18 11:58:00;;;;;;;8.35;6.33;;;;;;;8.19;60.77;93592.80;1756794;80;27204;-84
2021/10/18 12:00:29;;;;;;;9.20;5.62;;;;;;;8.24;61.57;93592.46;1733883;80;21361;-85
2021/10/18 12:03:01;;;;;;;10.00;5.78;;;;;;;8.30;60.93;93595.59;1736481;80;21540;-85
2021/10/18 12:05:42;;;;;;;7.45;5.72;;;;;;;8.37;60.43;93603.80;1731942;80;21123;-85
2021/10/18 12:08:09;;;;;;;9.05;6.45;;;;;;;8.39;59.75;93604.22;1774755;78;21706;-86
2021/10/18 12:10:38;;;;;;;7.50;5.72;;;;;;;8.35;59.33;93601.23;1760693;79;21003;-86
2021/10/18 12:13:16;;;;;;;7.85;6.08;;;;;;;8.31;60.30;93604.48;1753260;80;20971;-86
2021/10/18 12:16:00;;;;;;;8.38;6.50;;;;;;;8.29;60.57;93607.59;1791134;78;21064;-84
2021/10/18 12:18:53;;;;;;;8.00;5.90;;;;;;;8.27;60.81;93609.33;1731130;80;21053;-84
2021/10/18 12:21:35;;;;;;;9.05;6.28;;;;;;;8.27;60.54;93609.88;1781208;78;21129;-85
2021/10/18 12:24:16;;;;;;;8.25;5.37;;;;;;;8.26;60.66;93606.98;1755854;79;21061;-86
2021/10/18 12:26:46;;;;;;;12.18;6.00;;;;;;;8.24;60.61;93610.07;1785137;77;21029;-84
2021/10/18 12:29:16;;;;;;;8.25;6.00;;;;;;;8.25;60.74;93614.91;1785620;77;21153;-84
2021/10/18 12:31:51;;;;;;;11.05;6.75;;;;;;;8.23;60.93;93613.91;1832240;76;21583;-84
2021/10/18 12:34:26;;;;;;;8.65;6.40;;;;;;;8.22;60.59;93604.81;1794801;77;21066;-87
2021/10/18 12:37:09;;;;;;;8.68;6.30;;;;;;;8.20;60.15;93609.27;1756167;79;21292;-84
2021/10/18 12:39:47;;;;;;;11.40;6.28;;;;;;;8.18;60.06;93606.72;1777120;78;43452;-86
2021/10/18 12:42:33;;;;;;;6.25;5.60;;;;;;;8.14;60.29;93614.81;1778883;78;21083;-84
2021/10/18 12:45:07;;;;;;;10.82;6.40;;;;;;;8.12;60.81;93621.17;1784338;77;21070;-84
2021/10/18 12:47:40;;;;;;;7.28;5.72;;;;;;;8.11;61.39;93620.98;1747728;80;21061;-83